sensor_id;sensor_type;location;lat;lon;timestamp;temperature;humidity
14031;DHT22;7090;49.436;8.490;2023-04-24T00:02:11;11.70;99.90
14031;DHT22;7090;49.436;8.490;2023-04-24T00:04:38;11.70;99.90
14031;DHT22;7090;49.436;8.490;2023-04-24T00:07:07;11.70;99.90
14031;DHT22;7090;49.436;8.490;2023-04-24T00:09:35;11.70;99.90
14031;DHT22;7090;49.436;8.490;2023-04-24T00:12:01;11.80;99.90
14031;DHT22;7090;49.436;8.490;2023-04-24T00:14:30;11.70;99.90
14031;DHT22;7090;49.436;8.490;2023-04-24T00:16:55;11.70;99.90
14031;DHT22;7090;49.436;8.490;2023-04-24T00:19:21;11.70;99.90
14031;DHT22;7090;49.436;8.490;2023-04-24T00:21:47;11.70;99.90
14031;DHT22;7090;49.436;8.490;2023-04-24T00:24:15;11.70;99.90
14031;DHT22;7090;49.436;8.490;2023-04-24T00:26:41;11.70;99.90
14031;DHT22;7090;49.436;8.490;2023-04-24T00:29:07;11.80;99.90
14031;DHT22;7090;49.436;8.490;2023-04-24T00:31:32;11.80;99.90
14031;DHT22;7090;49.436;8.490;2023-04-24T00:34:00;11.90;99.90
14031;DHT22;7090;49.436;8.490;2023-04-24T00:36:26;11.90;99.90
14031;DHT22;7090;49.436;8.490;2023-04-24T00:38:53;11.90;99.90
14031;DHT22;7090;49.436;8.490;2023-04-24T00:41:18;11.80;99.90
14031;DHT22;7090;49.436;8.490;2023-04-24T00:43:44;11.80;99.90
14031;DHT22;7090;49.436;8.490;2023-04-24T00:46:10;11.80;99.90
14031;DHT22;7090;49.436;8.490;2023-04-24T00:48:38;11.70;99.90
14031;DHT22;7090;49.436;8.490;2023-04-24T00:51:04;11.70;99.90
14031;DHT22;7090;49.436;8.490;2023-04-24T00:53:30;11.60;99.90
14031;DHT22;7090;49.436;8.490;2023-04-24T00:55:56;11.70;99.90
14031;DHT22;7090;49.436;8.490;2023-04-24T00:58:22;11.70;99.90
14031;DHT22;7090;49.436;8.490;2023-04-24T01:00:49;11.70;99.90
14031;DHT22;7090;49.436;8.490;2023-04-24T01:03:19;11.70;99.90
14031;DHT22;7090;49.436;8.490;2023-04-24T01:05:45;11.70;99.90
14031;DHT22;7090;49.436;8.490;2023-04-24T01:08:11;11.70;99.90
14031;DHT22;7090;49.436;8.490;2023-04-24T01:10:38;11.70;99.90
14031;DHT22;7090;49.436;8.490;2023-04-24T01:13:05;11.70;99.90
14031;DHT22;7090;49.436;8.490;2023-04-24T01:15:31;11.70;99.90
14031;DHT22;7090;49.436;8.490;2023-04-24T01:17:56;11.60;99.90
14031;DHT22;7090;49.436;8.490;2023-04-24T01:20:22;11.60;99.90
14031;DHT22;7090;49.436;8.490;2023-04-24T01:22:49;11.60;99.90
14031;DHT22;7090;49.436;8.490;2023-04-24T01:25:15;11.60;99.90
14031;DHT22;7090;49.436;8.490;2023-04-24T01:27:41;11.60;99.90
14031;DHT22;7090;49.436;8.490;2023-04-24T01:30:07;11.50;99.90
14031;DHT22;7090;49.436;8.490;2023-04-24T01:32:33;11.50;99.90
14031;DHT22;7090;49.436;8.490;2023-04-24T01:35:00;11.50;99.90
14031;DHT22;7090;49.436;8.490;2023-04-24T01:37:25;11.50;99.90
14031;DHT22;7090;49.436;8.490;2023-04-24T01:39:52;11.50;99.90
14031;DHT22;7090;49.436;8.490;2023-04-24T01:42:17;11.50;99.90
14031;DHT22;7090;49.436;8.490;2023-04-24T01:44:43;11.50;99.90
14031;DHT22;7090;49.436;8.490;2023-04-24T01:47:10;11.50;99.90
14031;DHT22;7090;49.436;8.490;2023-04-24T01:49:38;11.50;99.90
14031;DHT22;7090;49.436;8.490;2023-04-24T01:52:04;11.60;99.90
14031;DHT22;7090;49.436;8.490;2023-04-24T01:54:30;11.50;99.90
14031;DHT22;7090;49.436;8.490;2023-04-24T01:56:55;11.60;99.90
14031;DHT22;7090;49.436;8.490;2023-04-24T01:59:21;11.70;99.90
14031;DHT22;7090;49.436;8.490;2023-04-24T02:01:48;11.70;99.90
14031;DHT22;7090;49.436;8.490;2023-04-24T02:04:14;11.70;99.90
14031;DHT22;7090;49.436;8.490;2023-04-24T02:06:40;11.70;99.90
14031;DHT22;7090;49.436;8.490;2023-04-24T02:09:06;11.60;99.90
14031;DHT22;7090;49.436;8.490;2023-04-24T02:11:31;11.60;99.90
14031;DHT22;7090;49.436;8.490;2023-04-24T02:13:57;11.70;99.90
14031;DHT22;7090;49.436;8.490;2023-04-24T02:16:23;11.70;99.90
14031;DHT22;7090;49.436;8.490;2023-04-24T02:18:48;11.70;99.90
14031;DHT22;7090;49.436;8.490;2023-04-24T02:21:14;11.70;99.90
14031;DHT22;7090;49.436;8.490;2023-04-24T02:23:40;11.70;99.90
14031;DHT22;7090;49.436;8.490;2023-04-24T02:26:06;11.70;99.90
14031;DHT22;7090;49.436;8.490;2023-04-24T02:28:31;11.70;99.90
14031;DHT22;7090;49.436;8.490;2023-04-24T02:30:57;11.70;99.90
14031;DHT22;7090;49.436;8.490;2023-04-24T02:33:22;11.70;99.90
14031;DHT22;7090;49.436;8.490;2023-04-24T02:35:48;11.70;99.90
14031;DHT22;7090;49.436;8.490;2023-04-24T02:38:13;11.70;99.90
14031;DHT22;7090;49.436;8.490;2023-04-24T02:40:39;11.70;99.90
14031;DHT22;7090;49.436;8.490;2023-04-24T02:43:05;11.70;99.90
14031;DHT22;7090;49.436;8.490;2023-04-24T02:45:30;11.60;99.90
14031;DHT22;7090;49.436;8.490;2023-04-24T02:47:56;11.60;99.90
14031;DHT22;7090;49.436;8.490;2023-04-24T02:50:21;11.60;99.90
14031;DHT22;7090;49.436;8.490;2023-04-24T02:52:47;11.50;99.90
14031;DHT22;7090;49.436;8.490;2023-04-24T02:55:13;11.40;99.90
14031;DHT22;7090;49.436;8.490;2023-04-24T02:57:38;11.30;99.90
14031;DHT22;7090;49.436;8.490;2023-04-24T03:00:04;11.10;99.90
14031;DHT22;7090;49.436;8.490;2023-04-24T03:02:32;11.00;99.90
14031;DHT22;7090;49.436;8.490;2023-04-24T03:04:58;10.90;99.90
14031;DHT22;7090;49.436;8.490;2023-04-24T03:07:23;10.80;99.90
14031;DHT22;7090;49.436;8.490;2023-04-24T03:09:49;10.70;99.90
14031;DHT22;7090;49.436;8.490;2023-04-24T03:12:15;10.70;99.90
14031;DHT22;7090;49.436;8.490;2023-04-24T03:14:43;10.60;99.90
14031;DHT22;7090;49.436;8.490;2023-04-24T03:17:08;10.60;99.90
14031;DHT22;7090;49.436;8.490;2023-04-24T03:19:34;10.50;99.90
14031;DHT22;7090;49.436;8.490;2023-04-24T03:22:01;10.50;99.90
14031;DHT22;7090;49.436;8.490;2023-04-24T03:24:27;10.50;99.90
14031;DHT22;7090;49.436;8.490;2023-04-24T03:26:53;10.50;99.90
14031;DHT22;7090;49.436;8.490;2023-04-24T03:29:19;10.50;99.90
14031;DHT22;7090;49.436;8.490;2023-04-24T03:31:44;10.50;99.90
14031;DHT22;7090;49.436;8.490;2023-04-24T03:34:10;10.50;99.90
14031;DHT22;7090;49.436;8.490;2023-04-24T03:36:36;10.30;99.90
14031;DHT22;7090;49.436;8.490;2023-04-24T03:39:01;10.50;99.90
14031;DHT22;7090;49.436;8.490;2023-04-24T03:41:27;10.50;99.90
14031;DHT22;7090;49.436;8.490;2023-04-24T03:43:53;10.50;99.90
14031;DHT22;7090;49.436;8.490;2023-04-24T03:46:18;10.50;99.90
14031;DHT22;7090;49.436;8.490;2023-04-24T03:48:44;10.40;99.90
14031;DHT22;7090;49.436;8.490;2023-04-24T03:51:09;10.30;99.90
14031;DHT22;7090;49.436;8.490;2023-04-24T03:53:35;10.20;99.90
14031;DHT22;7090;49.436;8.490;2023-04-24T03:56:00;10.10;99.90
14031;DHT22;7090;49.436;8.490;2023-04-24T03:58:26;10.10;99.90
14031;DHT22;7090;49.436;8.490;2023-04-24T04:00:52;10.00;99.90
14031;DHT22;7090;49.436;8.490;2023-04-24T04:03:17;9.90;99.90
14031;DHT22;7090;49.436;8.490;2023-04-24T04:05:43;9.90;99.90
14031;DHT22;7090;49.436;8.490;2023-04-24T04:08:08;9.90;99.90
14031;DHT22;7090;49.436;8.490;2023-04-24T04:10:34;9.80;99.90
14031;DHT22;7090;49.436;8.490;2023-04-24T04:13:00;9.70;99.90
14031;DHT22;7090;49.436;8.490;2023-04-24T04:15:25;9.70;99.90
14031;DHT22;7090;49.436;8.490;2023-04-24T04:17:51;9.70;99.90
14031;DHT22;7090;49.436;8.490;2023-04-24T04:20:16;9.70;99.90
14031;DHT22;7090;49.436;8.490;2023-04-24T04:22:42;9.80;99.90
14031;DHT22;7090;49.436;8.490;2023-04-24T04:25:08;9.80;99.90
14031;DHT22;7090;49.436;8.490;2023-04-24T04:27:34;9.60;99.90
14031;DHT22;7090;49.436;8.490;2023-04-24T04:30:01;9.60;99.90
14031;DHT22;7090;49.436;8.490;2023-04-24T04:32:32;9.60;99.90
14031;DHT22;7090;49.436;8.490;2023-04-24T04:35:01;9.50;99.90
14031;DHT22;7090;49.436;8.490;2023-04-24T04:37:30;9.50;99.90
14031;DHT22;7090;49.436;8.490;2023-04-24T04:40:00;9.50;99.90
14031;DHT22;7090;49.436;8.490;2023-04-24T04:42:26;9.50;99.90
14031;DHT22;7090;49.436;8.490;2023-04-24T04:44:52;9.70;99.90
14031;DHT22;7090;49.436;8.490;2023-04-24T04:47:21;9.60;99.90
14031;DHT22;7090;49.436;8.490;2023-04-24T04:49:50;9.70;99.90
14031;DHT22;7090;49.436;8.490;2023-04-24T04:52:17;9.60;99.90
14031;DHT22;7090;49.436;8.490;2023-04-24T04:54:43;9.70;99.90
14031;DHT22;7090;49.436;8.490;2023-04-24T04:57:08;9.70;99.90
14031;DHT22;7090;49.436;8.490;2023-04-24T04:59:34;9.80;99.90
14031;DHT22;7090;49.436;8.490;2023-04-24T05:02:00;9.90;99.90
14031;DHT22;7090;49.436;8.490;2023-04-24T05:04:26;10.30;99.90
14031;DHT22;7090;49.436;8.490;2023-04-24T05:06:52;10.50;99.90
14031;DHT22;7090;49.436;8.490;2023-04-24T05:09:18;10.70;99.90
14031;DHT22;7090;49.436;8.490;2023-04-24T05:11:44;10.50;99.90
14031;DHT22;7090;49.436;8.490;2023-04-24T05:14:09;10.30;99.90
14031;DHT22;7090;49.436;8.490;2023-04-24T05:16:35;10.10;99.90
14031;DHT22;7090;49.436;8.490;2023-04-24T05:19:02;10.30;99.90
14031;DHT22;7090;49.436;8.490;2023-04-24T05:21:28;10.50;99.90
14031;DHT22;7090;49.436;8.490;2023-04-24T05:23:53;10.80;99.90
14031;DHT22;7090;49.436;8.490;2023-04-24T05:26:19;10.60;99.90
14031;DHT22;7090;49.436;8.490;2023-04-24T05:28:45;10.70;99.90
14031;DHT22;7090;49.436;8.490;2023-04-24T05:31:10;10.90;99.90
14031;DHT22;7090;49.436;8.490;2023-04-24T05:33:37;11.00;99.90
14031;DHT22;7090;49.436;8.490;2023-04-24T05:36:03;10.60;99.90
14031;DHT22;7090;49.436;8.490;2023-04-24T05:38:30;10.50;99.90
14031;DHT22;7090;49.436;8.490;2023-04-24T05:40:56;10.50;99.90
14031;DHT22;7090;49.436;8.490;2023-04-24T05:43:21;10.60;99.90
14031;DHT22;7090;49.436;8.490;2023-04-24T05:45:47;10.60;99.90
14031;DHT22;7090;49.436;8.490;2023-04-24T05:48:13;11.10;99.90
14031;DHT22;7090;49.436;8.490;2023-04-24T05:50:38;11.50;99.90
14031;DHT22;7090;49.436;8.490;2023-04-24T05:53:04;11.60;92.90
14031;DHT22;7090;49.436;8.490;2023-04-24T05:55:31;12.20;52.50
14031;DHT22;7090;49.436;8.490;2023-04-24T05:57:56;12.30;1.00
14031;DHT22;7090;49.436;8.490;2023-04-24T06:00:23;12.60;1.00
14031;DHT22;7090;49.436;8.490;2023-04-24T06:02:49;12.20;1.00
14031;DHT22;7090;49.436;8.490;2023-04-24T06:05:14;12.10;1.00
14031;DHT22;7090;49.436;8.490;2023-04-24T06:07:40;11.80;1.00
14031;DHT22;7090;49.436;8.490;2023-04-24T06:10:06;11.50;1.00
14031;DHT22;7090;49.436;8.490;2023-04-24T06:12:32;11.20;1.00
14031;DHT22;7090;49.436;8.490;2023-04-24T06:14:57;11.00;99.90
14031;DHT22;7090;49.436;8.490;2023-04-24T06:17:23;11.00;99.90
14031;DHT22;7090;49.436;8.490;2023-04-24T06:19:48;11.10;99.90
14031;DHT22;7090;49.436;8.490;2023-04-24T06:22:14;11.20;82.20
14031;DHT22;7090;49.436;8.490;2023-04-24T06:24:40;11.00;99.90
14031;DHT22;7090;49.436;8.490;2023-04-24T06:27:06;11.00;99.90
14031;DHT22;7090;49.436;8.490;2023-04-24T06:29:33;10.90;99.90
14031;DHT22;7090;49.436;8.490;2023-04-24T06:31:59;10.80;99.90
14031;DHT22;7090;49.436;8.490;2023-04-24T06:34:24;10.50;99.90
14031;DHT22;7090;49.436;8.490;2023-04-24T06:36:50;10.30;99.90
14031;DHT22;7090;49.436;8.490;2023-04-24T06:39:16;10.20;99.90
14031;DHT22;7090;49.436;8.490;2023-04-24T06:41:41;10.10;99.90
14031;DHT22;7090;49.436;8.490;2023-04-24T06:44:07;10.00;99.90
14031;DHT22;7090;49.436;8.490;2023-04-24T06:46:32;10.00;99.90
14031;DHT22;7090;49.436;8.490;2023-04-24T06:48:58;9.80;99.90
14031;DHT22;7090;49.436;8.490;2023-04-24T06:51:24;9.80;99.90
14031;DHT22;7090;49.436;8.490;2023-04-24T06:53:51;9.70;99.90
14031;DHT22;7090;49.436;8.490;2023-04-24T06:56:17;9.70;99.90
14031;DHT22;7090;49.436;8.490;2023-04-24T06:58:43;9.60;99.90
14031;DHT22;7090;49.436;8.490;2023-04-24T07:01:09;9.60;99.90
14031;DHT22;7090;49.436;8.490;2023-04-24T07:03:35;9.60;99.90
14031;DHT22;7090;49.436;8.490;2023-04-24T07:06:00;9.70;99.90
14031;DHT22;7090;49.436;8.490;2023-04-24T07:08:26;9.80;99.90
14031;DHT22;7090;49.436;8.490;2023-04-24T07:10:52;9.80;99.90
14031;DHT22;7090;49.436;8.490;2023-04-24T07:13:17;10.00;99.90
14031;DHT22;7090;49.436;8.490;2023-04-24T07:15:43;10.20;99.90
14031;DHT22;7090;49.436;8.490;2023-04-24T07:18:09;10.20;99.90
14031;DHT22;7090;49.436;8.490;2023-04-24T07:20:34;10.40;99.90
14031;DHT22;7090;49.436;8.490;2023-04-24T07:23:00;10.50;99.90
14031;DHT22;7090;49.436;8.490;2023-04-24T07:25:26;10.50;99.90
14031;DHT22;7090;49.436;8.490;2023-04-24T07:27:52;10.70;99.90
14031;DHT22;7090;49.436;8.490;2023-04-24T07:30:18;10.80;99.90
14031;DHT22;7090;49.436;8.490;2023-04-24T07:32:43;10.80;99.90
14031;DHT22;7090;49.436;8.490;2023-04-24T07:35:09;10.60;99.90
14031;DHT22;7090;49.436;8.490;2023-04-24T07:37:35;10.70;99.90
14031;DHT22;7090;49.436;8.490;2023-04-24T07:40:01;10.50;81.70
14031;DHT22;7090;49.436;8.490;2023-04-24T07:42:28;10.60;99.90
14031;DHT22;7090;49.436;8.490;2023-04-24T07:44:55;10.60;99.90
14031;DHT22;7090;49.436;8.490;2023-04-24T07:47:22;10.70;99.90
14031;DHT22;7090;49.436;8.490;2023-04-24T07:49:47;11.10;23.30
14031;DHT22;7090;49.436;8.490;2023-04-24T07:52:13;11.50;55.80
14031;DHT22;7090;49.436;8.490;2023-04-24T07:54:39;11.90;1.00
14031;DHT22;7090;49.436;8.490;2023-04-24T07:57:04;12.20;99.90
14031;DHT22;7090;49.436;8.490;2023-04-24T07:59:32;12.30;99.90
14031;DHT22;7090;49.436;8.490;2023-04-24T08:01:57;12.40;1.00
14031;DHT22;7090;49.436;8.490;2023-04-24T08:04:23;12.80;1.00
14031;DHT22;7090;49.436;8.490;2023-04-24T08:06:48;13.40;1.00
14031;DHT22;7090;49.436;8.490;2023-04-24T08:09:14;13.10;1.00
14031;DHT22;7090;49.436;8.490;2023-04-24T08:11:40;12.80;1.00
14031;DHT22;7090;49.436;8.490;2023-04-24T08:14:05;12.80;1.00
14031;DHT22;7090;49.436;8.490;2023-04-24T08:16:32;13.50;99.90
14031;DHT22;7090;49.436;8.490;2023-04-24T08:18:58;13.50;47.80
14031;DHT22;7090;49.436;8.490;2023-04-24T08:21:24;13.00;89.60
14031;DHT22;7090;49.436;8.490;2023-04-24T08:23:51;13.20;1.00
14031;DHT22;7090;49.436;8.490;2023-04-24T08:26:17;12.80;1.00
14031;DHT22;7090;49.436;8.490;2023-04-24T08:28:42;12.60;1.00
14031;DHT22;7090;49.436;8.490;2023-04-24T08:31:08;12.50;1.00
14031;DHT22;7090;49.436;8.490;2023-04-24T08:33:33;12.40;1.00
14031;DHT22;7090;49.436;8.490;2023-04-24T08:36:04;12.20;99.90
14031;DHT22;7090;49.436;8.490;2023-04-24T08:38:30;12.50;99.90
14031;DHT22;7090;49.436;8.490;2023-04-24T08:41:00;12.60;1.00
14031;DHT22;7090;49.436;8.490;2023-04-24T08:43:26;12.70;1.00
14031;DHT22;7090;49.436;8.490;2023-04-24T08:45:53;12.50;99.90
14031;DHT22;7090;49.436;8.490;2023-04-24T08:48:22;12.50;1.00
14031;DHT22;7090;49.436;8.490;2023-04-24T08:50:50;12.00;1.00
14031;DHT22;7090;49.436;8.490;2023-04-24T08:53:16;12.00;1.00
14031;DHT22;7090;49.436;8.490;2023-04-24T08:55:43;11.80;1.00
14031;DHT22;7090;49.436;8.490;2023-04-24T08:58:12;11.90;1.00
14031;DHT22;7090;49.436;8.490;2023-04-24T09:00:39;11.80;1.00
14031;DHT22;7090;49.436;8.490;2023-04-24T09:03:10;11.80;1.00
14031;DHT22;7090;49.436;8.490;2023-04-24T09:05:35;11.90;1.00
14031;DHT22;7090;49.436;8.490;2023-04-24T09:08:02;12.10;1.00
14031;DHT22;7090;49.436;8.490;2023-04-24T09:10:29;12.10;1.00
14031;DHT22;7090;49.436;8.490;2023-04-24T09:12:56;12.00;1.00
14031;DHT22;7090;49.436;8.490;2023-04-24T09:15:24;11.90;1.00
14031;DHT22;7090;49.436;8.490;2023-04-24T09:17:50;11.70;99.90
14031;DHT22;7090;49.436;8.490;2023-04-24T09:20:16;11.80;1.00
14031;DHT22;7090;49.436;8.490;2023-04-24T09:22:42;11.90;1.00
14031;DHT22;7090;49.436;8.490;2023-04-24T09:25:09;11.80;1.00
14031;DHT22;7090;49.436;8.490;2023-04-24T09:27:42;11.90;1.00
14031;DHT22;7090;49.436;8.490;2023-04-24T09:30:08;11.90;1.00
14031;DHT22;7090;49.436;8.490;2023-04-24T09:32:34;11.80;1.00
14031;DHT22;7090;49.436;8.490;2023-04-24T09:35:08;11.90;1.00
14031;DHT22;7090;49.436;8.490;2023-04-24T09:37:46;12.00;1.00
14031;DHT22;7090;49.436;8.490;2023-04-24T09:40:20;12.30;1.00
14031;DHT22;7090;49.436;8.490;2023-04-24T09:42:50;12.50;1.00
14031;DHT22;7090;49.436;8.490;2023-04-24T09:45:16;12.70;99.90
14031;DHT22;7090;49.436;8.490;2023-04-24T09:47:42;12.70;1.00
14031;DHT22;7090;49.436;8.490;2023-04-24T09:50:12;12.70;99.90
14031;DHT22;7090;49.436;8.490;2023-04-24T09:52:57;12.60;1.00
14031;DHT22;7090;49.436;8.490;2023-04-24T09:55:24;12.50;1.00
14031;DHT22;7090;49.436;8.490;2023-04-24T09:57:59;12.50;1.00
14031;DHT22;7090;49.436;8.490;2023-04-24T10:00:29;12.90;1.00
14031;DHT22;7090;49.436;8.490;2023-04-24T10:03:02;12.70;1.00
14031;DHT22;7090;49.436;8.490;2023-04-24T10:08:02;13.10;1.00
14031;DHT22;7090;49.436;8.490;2023-04-24T10:10:28;13.00;1.00
14031;DHT22;7090;49.436;8.490;2023-04-24T10:12:55;12.80;1.00
14031;DHT22;7090;49.436;8.490;2023-04-24T10:15:21;12.60;37.40
14031;DHT22;7090;49.436;8.490;2023-04-24T10:17:51;12.60;1.00
14031;DHT22;7090;49.436;8.490;2023-04-24T10:20:24;12.40;99.90
14031;DHT22;7090;49.436;8.490;2023-04-24T10:22:52;12.20;1.00
14031;DHT22;7090;49.436;8.490;2023-04-24T10:25:22;12.10;1.00
14031;DHT22;7090;49.436;8.490;2023-04-24T10:27:49;12.10;99.90
14031;DHT22;7090;49.436;8.490;2023-04-24T10:30:16;12.00;1.00
14031;DHT22;7090;49.436;8.490;2023-04-24T10:32:41;12.00;85.40
14031;DHT22;7090;49.436;8.490;2023-04-24T10:35:08;12.20;99.90
14031;DHT22;7090;49.436;8.490;2023-04-24T10:37:41;12.40;47.50
14031;DHT22;7090;49.436;8.490;2023-04-24T10:40:09;12.80;1.00
14031;DHT22;7090;49.436;8.490;2023-04-24T10:42:35;13.00;1.00
14031;DHT22;7090;49.436;8.490;2023-04-24T10:45:06;12.90;1.00
14031;DHT22;7090;49.436;8.490;2023-04-24T10:47:40;13.10;1.00
14031;DHT22;7090;49.436;8.490;2023-04-24T10:50:15;12.90;1.00
14031;DHT22;7090;49.436;8.490;2023-04-24T10:52:48;13.10;1.00
14031;DHT22;7090;49.436;8.490;2023-04-24T10:55:16;13.50;1.00
14031;DHT22;7090;49.436;8.490;2023-04-24T10:58:01;13.30;99.90
14031;DHT22;7090;49.436;8.490;2023-04-24T11:00:28;13.60;99.90
14031;DHT22;7090;49.436;8.490;2023-04-24T11:02:53;13.90;99.90
14031;DHT22;7090;49.436;8.490;2023-04-24T11:05:21;13.90;1.00
14031;DHT22;7090;49.436;8.490;2023-04-24T11:10:44;13.70;1.00
14031;DHT22;7090;49.436;8.490;2023-04-24T11:13:09;13.40;1.00
14031;DHT22;7090;49.436;8.490;2023-04-24T11:15:35;14.00;1.00
14031;DHT22;7090;49.436;8.490;2023-04-24T11:18:01;14.60;99.90
14031;DHT22;7090;49.436;8.490;2023-04-24T11:20:27;14.30;99.90
14031;DHT22;7090;49.436;8.490;2023-04-24T11:22:54;14.60;99.90
14031;DHT22;7090;49.436;8.490;2023-04-24T11:25:21;14.40;99.90
14031;DHT22;7090;49.436;8.490;2023-04-24T11:27:47;13.80;99.90
14031;DHT22;7090;49.436;8.490;2023-04-24T11:30:17;13.60;1.00
14031;DHT22;7090;49.436;8.490;2023-04-24T11:32:43;13.70;99.90
14031;DHT22;7090;49.436;8.490;2023-04-24T11:35:22;13.70;58.30
14031;DHT22;7090;49.436;8.490;2023-04-24T11:37:53;14.40;1.00
14031;DHT22;7090;49.436;8.490;2023-04-24T11:40:20;14.50;1.00
14031;DHT22;7090;49.436;8.490;2023-04-24T11:42:49;14.40;99.90
14031;DHT22;7090;49.436;8.490;2023-04-24T11:45:22;15.00;99.90
14031;DHT22;7090;49.436;8.490;2023-04-24T11:47:48;14.70;1.00
14031;DHT22;7090;49.436;8.490;2023-04-24T11:50:16;14.50;1.00
14031;DHT22;7090;49.436;8.490;2023-04-24T11:52:45;14.50;99.90
14031;DHT22;7090;49.436;8.490;2023-04-24T11:57:42;14.10;1.00
14031;DHT22;7090;49.436;8.490;2023-04-24T12:00:19;13.90;1.00
14031;DHT22;7090;49.436;8.490;2023-04-24T12:02:46;13.40;1.00
14031;DHT22;7090;49.436;8.490;2023-04-24T12:05:25;13.30;1.00
14031;DHT22;7090;49.436;8.490;2023-04-24T12:07:53;13.20;1.00
14031;DHT22;7090;49.436;8.490;2023-04-24T12:10:23;12.80;99.90
14031;DHT22;7090;49.436;8.490;2023-04-24T12:12:50;12.90;99.90
14031;DHT22;7090;49.436;8.490;2023-04-24T12:15:18;13.00;99.90
14031;DHT22;7090;49.436;8.490;2023-04-24T12:17:44;12.90;1.00
14031;DHT22;7090;49.436;8.490;2023-04-24T12:20:10;13.00;1.00
14031;DHT22;7090;49.436;8.490;2023-04-24T12:25:16;13.00;99.90
14031;DHT22;7090;49.436;8.490;2023-04-24T12:27:42;13.10;99.90
14031;DHT22;7090;49.436;8.490;2023-04-24T12:30:15;13.20;69.30
14031;DHT22;7090;49.436;8.490;2023-04-24T12:32:51;13.20;1.00
14031;DHT22;7090;49.436;8.490;2023-04-24T12:35:21;13.30;1.00
14031;DHT22;7090;49.436;8.490;2023-04-24T12:37:47;13.50;1.00
14031;DHT22;7090;49.436;8.490;2023-04-24T12:40:14;13.70;99.90
14031;DHT22;7090;49.436;8.490;2023-04-24T12:42:45;13.90;99.90
14031;DHT22;7090;49.436;8.490;2023-04-24T12:45:11;13.80;1.00
14031;DHT22;7090;49.436;8.490;2023-04-24T12:47:38;14.00;1.00
14031;DHT22;7090;49.436;8.490;2023-04-24T12:50:04;14.30;1.00
14031;DHT22;7090;49.436;8.490;2023-04-24T12:52:31;14.70;1.00
14031;DHT22;7090;49.436;8.490;2023-04-24T12:54:58;15.00;99.90
14031;DHT22;7090;49.436;8.490;2023-04-24T12:57:26;15.20;99.90
14031;DHT22;7090;49.436;8.490;2023-04-24T12:59:54;14.50;30.70
14031;DHT22;7090;49.436;8.490;2023-04-24T13:02:20;14.50;99.90
14031;DHT22;7090;49.436;8.490;2023-04-24T13:04:47;14.90;99.90
14031;DHT22;7090;49.436;8.490;2023-04-24T13:07:13;15.10;23.80
14031;DHT22;7090;49.436;8.490;2023-04-24T13:09:40;15.10;1.00
14031;DHT22;7090;49.436;8.490;2023-04-24T13:12:07;14.30;1.00
14031;DHT22;7090;49.436;8.490;2023-04-24T13:14:32;14.20;2.20
14031;DHT22;7090;49.436;8.490;2023-04-24T13:16:58;14.10;1.00
14031;DHT22;7090;49.436;8.490;2023-04-24T13:19:27;14.50;1.00
14031;DHT22;7090;49.436;8.490;2023-04-24T13:21:54;14.90;1.00
14031;DHT22;7090;49.436;8.490;2023-04-24T13:24:21;14.80;1.00
14031;DHT22;7090;49.436;8.490;2023-04-24T13:26:50;15.10;1.00
14031;DHT22;7090;49.436;8.490;2023-04-24T13:29:15;15.80;1.00
14031;DHT22;7090;49.436;8.490;2023-04-24T13:31:41;15.90;1.00
14031;DHT22;7090;49.436;8.490;2023-04-24T13:34:06;15.80;1.00
14031;DHT22;7090;49.436;8.490;2023-04-24T13:36:32;15.20;1.00
14031;DHT22;7090;49.436;8.490;2023-04-24T13:38:58;15.30;1.00
14031;DHT22;7090;49.436;8.490;2023-04-24T13:41:24;15.40;1.00
14031;DHT22;7090;49.436;8.490;2023-04-24T13:43:49;15.20;1.00
14031;DHT22;7090;49.436;8.490;2023-04-24T13:46:15;15.20;1.00
14031;DHT22;7090;49.436;8.490;2023-04-24T13:48:41;15.10;1.00
14031;DHT22;7090;49.436;8.490;2023-04-24T13:51:07;15.10;1.00
14031;DHT22;7090;49.436;8.490;2023-04-24T13:53:32;14.70;1.00
14031;DHT22;7090;49.436;8.490;2023-04-24T13:56:01;14.50;99.90
14031;DHT22;7090;49.436;8.490;2023-04-24T13:58:27;14.40;99.90
14031;DHT22;7090;49.436;8.490;2023-04-24T14:00:53;14.20;99.90
14031;DHT22;7090;49.436;8.490;2023-04-24T14:03:18;14.20;1.00
14031;DHT22;7090;49.436;8.490;2023-04-24T14:05:44;14.20;99.90
14031;DHT22;7090;49.436;8.490;2023-04-24T14:08:10;14.20;1.00
14031;DHT22;7090;49.436;8.490;2023-04-24T14:10:35;14.00;99.90
14031;DHT22;7090;49.436;8.490;2023-04-24T14:13:01;13.90;99.90
14031;DHT22;7090;49.436;8.490;2023-04-24T14:15:27;13.70;1.00
14031;DHT22;7090;49.436;8.490;2023-04-24T14:17:53;13.60;99.90
14031;DHT22;7090;49.436;8.490;2023-04-24T14:20:18;13.80;99.90
14031;DHT22;7090;49.436;8.490;2023-04-24T14:22:44;13.80;99.90
14031;DHT22;7090;49.436;8.490;2023-04-24T14:25:11;13.80;99.90
14031;DHT22;7090;49.436;8.490;2023-04-24T14:27:36;13.40;1.00
14031;DHT22;7090;49.436;8.490;2023-04-24T14:30:02;12.60;56.00
14031;DHT22;7090;49.436;8.490;2023-04-24T14:32:28;12.20;1.00
14031;DHT22;7090;49.436;8.490;2023-04-24T14:34:53;11.90;1.00
14031;DHT22;7090;49.436;8.490;2023-04-24T14:37:19;11.60;1.00
14031;DHT22;7090;49.436;8.490;2023-04-24T14:39:45;11.40;99.90
14031;DHT22;7090;49.436;8.490;2023-04-24T14:42:10;11.30;1.00
14031;DHT22;7090;49.436;8.490;2023-04-24T14:44:36;11.30;99.90
14031;DHT22;7090;49.436;8.490;2023-04-24T14:47:02;11.50;99.90
14031;DHT22;7090;49.436;8.490;2023-04-24T14:49:27;11.40;99.90
14031;DHT22;7090;49.436;8.490;2023-04-24T14:51:53;11.40;99.90
14031;DHT22;7090;49.436;8.490;2023-04-24T14:54:18;11.30;99.90
14031;DHT22;7090;49.436;8.490;2023-04-24T14:56:45;11.30;99.90
14031;DHT22;7090;49.436;8.490;2023-04-24T14:59:10;11.30;99.90
14031;DHT22;7090;49.436;8.490;2023-04-24T15:01:36;11.50;99.90
14031;DHT22;7090;49.436;8.490;2023-04-24T15:04:01;11.70;99.90
14031;DHT22;7090;49.436;8.490;2023-04-24T15:06:27;11.90;99.90
14031;DHT22;7090;49.436;8.490;2023-04-24T15:08:53;12.10;12.80
14031;DHT22;7090;49.436;8.490;2023-04-24T15:11:19;12.30;25.00
14031;DHT22;7090;49.436;8.490;2023-04-24T15:13:45;12.30;1.00
14031;DHT22;7090;49.436;8.490;2023-04-24T15:16:10;12.40;1.00
14031;DHT22;7090;49.436;8.490;2023-04-24T15:18:36;12.40;1.00
14031;DHT22;7090;49.436;8.490;2023-04-24T15:21:02;12.30;1.00
14031;DHT22;7090;49.436;8.490;2023-04-24T15:23:27;12.30;99.90
14031;DHT22;7090;49.436;8.490;2023-04-24T15:25:53;12.40;1.00
14031;DHT22;7090;49.436;8.490;2023-04-24T15:28:19;12.30;99.90
14031;DHT22;7090;49.436;8.490;2023-04-24T15:30:47;12.30;1.00
14031;DHT22;7090;49.436;8.490;2023-04-24T15:33:13;12.30;1.00
14031;DHT22;7090;49.436;8.490;2023-04-24T15:35:38;12.40;1.00
14031;DHT22;7090;49.436;8.490;2023-04-24T15:38:04;12.40;99.90
14031;DHT22;7090;49.436;8.490;2023-04-24T15:40:29;12.70;24.10
14031;DHT22;7090;49.436;8.490;2023-04-24T15:42:55;12.90;1.00
14031;DHT22;7090;49.436;8.490;2023-04-24T15:45:21;12.80;1.00
14031;DHT22;7090;49.436;8.490;2023-04-24T15:47:47;12.90;1.00
14031;DHT22;7090;49.436;8.490;2023-04-24T15:50:13;12.90;1.00
14031;DHT22;7090;49.436;8.490;2023-04-24T15:52:41;12.90;1.00
14031;DHT22;7090;49.436;8.490;2023-04-24T15:55:07;12.80;99.90
14031;DHT22;7090;49.436;8.490;2023-04-24T15:57:32;12.90;1.00
14031;DHT22;7090;49.436;8.490;2023-04-24T15:59:58;13.00;99.90